Terminal Aerodrome Forecast
Issued by NWS Anchorage, AK

Home | Current Version | Previous Version | Text Only | Print | Product List | Glossary On
Versions: 1 2 3 4 5 6 7 8 9 10 11 12 13 14 15 16 17 18 19 20 21 22 23 24 25 26 27 28 29 30 31 32 33 34 35 36 37 38 39 40 41 42 43 44 45 46
830
FTAK31 PANC 202333
TAFANC
TAF
PANC 202333Z 2100/2206 02007KT P6SM VCSH SCT030 OVC060
     FM210400 01003KT 4SM -SN SCT012 OVC025
     FM211600 36004KT 5SM -SHSN SCT020 OVC035=

USA.gov is the U.S. government's official web portal to all federal, state and local government web resources and services.